Overview Statistics Trail Chart Weather Telemetry Raw packets
 

This is the latest recevied weather packets stored in our database for station/object ED1ZAI-13. If no packets are shown the sender has not sent any weather packets the latest 10 day(s).

<< 28 29 30 31 32 33 34 >>
Time Temp. Humidity Pressure Rain* Wind** Luminosity Snow
1787855932 17.22° C 49% 1009.8 hPa - - - -
1787855333 17.22° C 49% 1009.6 hPa - - - -
1787854733 17.22° C 49% 1009.4 hPa - - - -
1787854132 17.22° C 49% 1009.2 hPa - - - -
1787853533 17.78° C 48% 1009.2 hPa - - - -
1787852932 17.22° C 49% 1008.7 hPa - - - -
1787852332 16.67° C 50% 1008.4 hPa - - - -
1787851732 16.67° C 51% 1008.1 hPa - - - -
1787851132 16.67° C 50% 1008.4 hPa - - - -
1787850533 16.67° C 50% 1008 hPa - - - -
1787849933 17.22° C 52% 1007.2 hPa - - - -
1787849333 17.22° C 52% 1007 hPa - - - -
1787848732 17.22° C 51% 1007.3 hPa - - - -
1787848133 17.22° C 51% 1007.5 hPa - - - -
1787847533 16.67° C 50% 1007.6 hPa - - - -
1787846931 17.78° C 48% 1008.2 hPa - - - -
1787846332 17.78° C 46% 1009.1 hPa - - - -
1787845732 18.33° C 44% 1009.5 hPa - - - -
1787845132 17.78° C 43% 1009.6 hPa - - - -
1787844532 18.33° C 44% 1009.4 hPa - - - -
1787843789 19.44° C 42% 1009.8 hPa - - - -
1787843189 19.44° C 38% 1010.9 hPa - - - -
1787842588 19.44° C 39% 1010.9 hPa - - - -
1787841988 18.33° C 41% 1009.5 hPa - - - -
1787841388 18.33° C 44% 1007.9 hPa - - - -

* Rain since midnight (hover to see other rain measurements)
** Current wind speed in m/s (hover to see current wind gust speed)